Terminal Aerodrome Forecast
Issued by NWS

Home | Current Version | Previous Version | Text Only | Print | Product List | Glossary Off
Versions: 1 2 3 4 5 6 7 8 9 10 11 12 13 14 15 16 17 18 19

594
FTUS43 KUNR 042320
TAFGCC
TAF
KGCC 042320Z 0500/0524 23015KT P6SM BKN060 OVC100
     FM050800 30015G25KT 2SM -SN BKN008 OVC015
     FM051200 33022G32KT 3/4SM -SN BLSN VV007
     FM052000 33015G25KT 4SM -SN BKN015 OVC030=

USA.gov is the U.S. government's official web portal to all federal, state and local government web resources and services.